Flight Track Log - Related Links

Times and Time Zones

All times are in EST time to prevent confusion due to time zone crossing. See the AAL963 flight status page for this flight to view local times or setup timezone preferences in your user account.

Time Position Orientation Groundspeed Altitude Reporting Facility
EST Latitude Longitude Course Direction KTS MPH feet Rate Location/Type
Sun 10:14:00 PM 32.9375 -97.0236 14° North 183 211 2,100  Level FlightAware ADS-B
Sun 10:14:21 PM 32.9581 -97.0185 12° North 211 243 2,400 1,171 Climbing FlightAware ADS-B
Sun 10:14:41 PM 32.9804 -97.0133 11° North 234 269 2,900 1,784 Climbing FlightAware ADS-B
Sun 10:14:58 PM 32.9971 -97.0099 10° North 240 276 3,500 2,108 Climbing FlightAware ADS-B
Sun 10:15:18 PM 33.0197 -97.0051 10° North 249 287 4,200 1,902 Climbing FlightAware ADS-B
Sun 10:15:39 PM 33.0411 -96.9888 33° Northeast 266 306 4,800 1,756 Climbing FlightAware ADS-B
Sun 10:15:59 PM 33.0498 -96.9579 71° East 279 321 5,400 2,049 Climbing FlightAware ADS-B
Sun 10:16:20 PM 33.0475 -96.9289 95° East 282 325 6,200 2,488 Climbing FlightAware ADS-B
Sun 10:16:40 PM 33.0432 -96.8959 99° East 285 328 7,100 2,341 Climbing FlightAware ADS-B
Sun 10:17:01 PM 33.0388 -96.8643 99° East 289 333 7,800 2,108 Climbing FlightAware ADS-B
Sun 10:17:17 PM 33.0347 -96.8375 100° East 295 339 8,400 1,895 Climbing FlightAware ADS-B
Sun 10:17:58 PM 33.0246 -96.7697 100° East 308 354 9,600 1,610 Climbing FlightAware ADS-B
Sun 10:18:39 PM 33.0138 -96.6976 100° East 337 388 10,600 1,317 Climbing FlightAware ADS-B
Sun 10:19:20 PM 33.0025 -96.6234 100° East 372 428 11,400 2,483 Climbing FlightAware ADS-B
Sun 10:20:06 PM 32.9881 -96.5208 133° Southeast 380 437 14,200 2,951 Climbing Fort Worth Center
Sun 10:20:21 PM 32.9830 -96.4933 100° East 391 450 14,400 2,308 Climbing FlightAware ADS-B
Sun 10:20:58 PM 32.9708 -96.4129 100° East 399 459 16,200 2,075 Climbing FlightAware ADS-B
Sun 10:25:00 PM 32.5903 -95.9298 133° Southeast  Level Estimated
Sun 10:26:08 PM 32.8504 -95.6388 133° Southeast 509 586 26,400  Level FlightAware ADS-B
Sun 10:28:51 PM 32.6820 -95.2242 116° Southeast 543 625 29,600 1,417 Climbing FlightAware ADS-B
Sun 10:29:44 PM 32.6179 -95.0869 119° Southeast 539 620 31,500 2,047 Climbing FlightAware ADS-B
Sun 10:30:16 PM 32.5794 -95.0049 119° Southeast 534 615 32,500 1,701 Climbing FlightAware ADS-B
Sun 10:30:51 PM 32.5376 -94.9161 119° Southeast 534 615 33,400 1,500 Climbing FlightAware ADS-B
Sun 10:30:56 PM 32.5304 -94.9008 119° Southeast 534 615 33,500 1,448 Climbing FlightAware ADS-B
Sun 10:31:20 PM 32.5009 -94.8423 121° Southeast 529 609 34,100 1,500 Climbing FlightAware ADS-B
Sun 10:31:36 PM 32.4855 -94.8129 122° Southeast 528 608 34,500 1,355 Climbing FlightAware ADS-B
Sun 10:31:51 PM 32.4617 -94.7673 122° Southeast 527 606 34,800 612 Climbing FlightAware ADS-B
Sun 10:32:25 PM 32.4180 -94.6839 122° Southeast 528 608 35,000 279 Climbing FlightAware ADS-B
Sun 10:32:34 PM 32.4063 -94.6616 122° Southeast 528 608 35,000  Level FlightAware ADS-B
Sun 10:32:48 PM 32.3910 -94.6320 122° Southeast 530 610 35,000  Level FlightAware ADS-B
Sun 10:32:59 PM 32.3740 -94.5992 122° Southeast 530 610 35,000  Level FlightAware ADS-B
Sun 10:33:30 PM 32.3345 -94.5231 122° Southeast 532 612 35,000  Level FlightAware ADS-B
Sun 10:33:51 PM 32.3068 -94.4695 121° Southeast 534 615 35,000  Level FlightAware ADS-B
Sun 10:34:01 PM 32.2945 -94.4457 121° Southeast 533 613 35,000  Level FlightAware ADS-B
Sun 10:34:33 PM 32.2534 -94.3664 121° Southeast 533 613 35,000  Level FlightAware ADS-B
Sun 10:34:34 PM 32.2523 -94.3642 121° Southeast 533 613 35,000  Level FlightAware ADS-B
Sun 10:34:45 PM 32.2393 -94.3391 122° Southeast 534 615 35,000  Level FlightAware ADS-B
Sun 10:35:11 PM 32.2047 -94.2725 122° Southeast 533 613 35,000  Level FlightAware ADS-B
Sun 10:35:15 PM 32.1996 -94.2626 121° Southeast 532 612 35,000  Level FlightAware ADS-B
Sun 10:35:42 PM 32.1649 -94.1959 122° Southeast 532 612 35,000  Level FlightAware ADS-B
Sun 10:35:47 PM 32.1585 -94.1836 122° Southeast 531 611 35,000  Level FlightAware ADS-B
Sun 10:35:56 PM 32.1547 -94.1765 122° Southeast 530 610 35,000  Level FlightAware ADS-B
Sun 10:36:15 PM 32.1222 -94.1141 122° Southeast 529 609 35,000  Level FlightAware ADS-B
Sun 10:36:35 PM 32.0970 -94.0659 122° Southeast 528 608 35,000  Level FlightAware ADS-B
Sun 10:37:02 PM 32.0622 -93.9996 122° Southeast 527 606 35,000  Level FlightAware ADS-B
Sun 10:37:14 PM 32.0480 -93.9728 122° Southeast 527 606 35,000  Level FlightAware ADS-B
Sun 10:37:21 PM 32.0643 -94.0037 302° West 528 608 35,000  Level FlightAware ADS-B
Sun 10:37:37 PM 32.0175 -93.9146 122° Southeast 527 606 35,000  Level FlightAware ADS-B
Sun 10:37:57 PM 31.9948 -93.8716 122° Southeast 526 605 35,000  Level FlightAware ADS-B
Sun 10:38:11 PM 31.9740 -93.8323 122° Southeast 525 604 35,000  Level FlightAware ADS-B
Sun 10:38:34 PM 31.9445 -93.7764 122° Southeast 524 603 35,000  Level FlightAware ADS-B
Sun 10:39:12 PM 31.8953 -93.6834 122° Southeast 524 603 35,000  Level FlightAware ADS-B
Sun 10:39:16 PM 31.8903 -93.6740 122° Southeast 524 603 35,000  Level FlightAware ADS-B
Sun 10:39:55 PM 31.8398 -93.5790 122° Southeast 526 605 35,000  Level FlightAware ADS-B
Sun 10:41:26 PM 31.7233 -93.3602 122° Southeast 528 608 35,000  Level FlightAware ADS-B
Sun 10:42:11 PM 31.6648 -93.2507 122° Southeast 528 608 35,000  Level FlightAware ADS-B
Sun 10:44:16 PM 31.5023 -92.9485 122° Southeast 528 608 35,000  Level FlightAware ADS-B
Sun 10:44:50 PM 31.4573 -92.8654 122° Southeast 526 605 35,000  Level FlightAware ADS-B
Sun 10:45:24 PM 31.4137 -92.7848 122° Southeast 526 605 35,000  Level FlightAware ADS-B
Sun 10:45:56 PM 31.3722 -92.7085 122° Southeast 527 606 35,000  Level FlightAware ADS-B
Sun 10:46:43 PM 31.3103 -92.5948 122° Southeast 528 608 35,000  Level FlightAware ADS-B
Sun 10:47:46 PM 31.2270 -92.4421 123° Southeast 527 606 35,000  Level FlightAware ADS-B
Sun 10:48:47 PM 31.1475 -92.2971 123° Southeast 530 610 35,000  Level FlightAware ADS-B
Sun 10:49:23 PM 31.1047 -92.2217 123° Southeast 529 609 35,000  Level Houston Center
Sun 10:50:24 PM 31.0256 -92.0775 123° Southeast 526 605 35,000  Level Houston Center
Sun 10:51:25 PM 30.9531 -91.9458 123° Southeast 530 610 35,000  Level Houston Center
Sun 10:52:26 PM 30.8742 -91.8039 123° Southeast 527 606 35,000  Level Houston Center
Sun 10:53:27 PM 30.7933 -91.6600 123° Southeast 528 608 35,000  Level Houston Center
Sun 10:54:27 PM 30.6972 -91.4869 123° Southeast 532 612 35,000  Level Houston Center
Sun 10:55:28 PM 30.6169 -91.3450 123° Southeast 532 612 35,000 -49 Level Houston Center
Sun 10:56:29 PM 30.5369 -91.2031 123° Southeast 527 606 34,900 -49 Descending Houston Center
Sun 10:57:30 PM 30.4583 -91.0606 123° Southeast 527 606 34,900 49 Level Houston Center
Sun 10:58:31 PM 30.3767 -90.9183 124° Southeast 530 610 35,000  Climbing Houston Center
Sun 10:59:32 PM 30.2969 -90.7775 123° Southeast 526 605 34,900 -49 Descending Houston Center
Sun 11:00:33 PM 30.2169 -90.6367 123° Southeast 525 604 34,900 49 Level Houston Center
Sun 11:01:34 PM 30.1469 -90.4911 119° Southeast 527 606 35,000 49 Climbing Houston Center
Sun 11:02:35 PM 30.0983 -90.3281 109° East 539 620 35,000  Level Houston Center
Sun 11:03:36 PM 30.0464 -90.1678 110° East 537 618 35,000  Level Houston Center
Sun 11:04:37 PM 29.9808 -89.9797 112° Southeast 535 616 35,000 -49 Level Houston Center
Sun 11:05:38 PM 29.9289 -89.8211 111° Southeast 536 617 34,900 -49 Descending Houston Center
Sun 11:06:39 PM 29.8806 -89.6608 109° East 535 616 34,900 50 Level Houston Center
Sun 11:07:39 PM 29.8306 -89.5000 110° East 537 618 35,000 50 Climbing Houston Center
Sun 11:08:40 PM 29.7789 -89.3392 110° East 539 620 35,000 -49 Level Houston Center
Sun 11:09:41 PM 29.7286 -89.1792 110° East 536 617 34,900 -49 Descending Houston Center
Sun 11:10:42 PM 29.6769 -89.0197 110° East 534 615 34,900 49 Level Houston Center
Sun 11:11:43 PM 29.6269 -88.8608 110° East 531 611 35,000 49 Climbing Houston Center
Sun 11:12:44 PM 29.5747 -88.7028 111° Southeast 532 612 35,000  Level Houston Center
Sun 11:13:45 PM 29.5242 -88.5442 110° East 531 611 35,000 -50 Level Houston Center
Sun 11:14:45 PM 29.4728 -88.3853 110° East 531 611 34,900  Descending Houston Center
Sun 11:15:46 PM 29.4094 -88.2094 112° Southeast 531 611 35,000 49 Climbing Houston Center
Sun 11:16:47 PM 29.3456 -88.0600 116° Southeast 526 605 35,000 -49 Level Houston Center
Sun 11:17:48 PM 29.2875 -87.9183 115° Southeast 527 606 34,900 -49 Descending Houston Center
Sun 11:18:49 PM 29.2247 -87.7658 115° Southeast 530 610 34,900 49 Level Houston Center
Sun 11:19:50 PM 29.1511 -87.5850 115° Southeast 526 605 35,000 49 Climbing Houston Center
Sun 11:20:51 PM 29.0892 -87.4339 115° Southeast 526 605 35,000 -50 Level Houston Center
Sun 11:21:51 PM 29.0250 -87.2833 116° Southeast 527 606 34,900  Descending Houston Center
Sun 11:22:52 PM 28.9633 -87.1342 115° Southeast 524 603 35,000 49 Climbing Houston Center
Sun 11:23:53 PM 28.9006 -86.9839 115° Southeast 525 604 35,000  Level Houston Center
Sun 11:24:54 PM 28.8375 -86.8353 116° Southeast 523 602 35,000  Level Houston Center
Sun 11:25:55 PM 28.7750 -86.6858 115° Southeast 524 603 35,000  Level Houston Center
Sun 11:27:07 PM 28.7000 -86.5114 116° Southeast 519 597 35,000  Level Jacksonville Center
Sun 11:28:07 PM 28.6372 -86.3647 116° Southeast 524 603 35,000  Level Jacksonville Center
Sun 11:29:07 PM 28.5722 -86.2161 116° Southeast 519 597 35,000  Level Jacksonville Center
Sun 11:30:07 PM 28.5092 -86.0722 116° Southeast 518 596 35,000  Level Jacksonville Center
Sun 11:31:07 PM 28.4439 -85.9239 117° Southeast 523 602 35,000  Level Jacksonville Center
Sun 11:32:07 PM 28.3786 -85.7708 116° Southeast 523 602 35,000  Level Jacksonville Center
Sun 11:34:11 PM 28.2467 -85.4639 116° Southeast 525 604 35,000  Level Miami Center
Sun 11:35:12 PM 28.1825 -85.3156 116° Southeast 532 612 35,000 -50 Level Miami Center
Sun 11:36:12 PM 28.1142 -85.1694 118° Southeast 532 612 34,900  Descending Miami Center
Sun 11:37:11 PM 28.0517 -85.0239 116° Southeast 532 612 35,000  Climbing Miami Center
Sun 11:38:12 PM 27.9869 -84.8761 116° Southeast 526 605 34,900 -50 Descending Miami Center
Sun 11:39:12 PM 27.9264 -84.7286 115° Southeast 521 600 34,900  Level Miami Center
Sun 11:40:14 PM 27.8697 -84.5817 114° Southeast 515 593 34,900  Level Miami Center
Sun 11:41:14 PM 27.8067 -84.4367 116° Southeast 515 593 34,900 50 Level Miami Center
Sun 11:42:14 PM 27.7478 -84.2875 114° Southeast 515 593 35,000 51 Climbing Miami Center
Sun 11:43:12 PM 27.6883 -84.1456 115° Southeast 521 600 35,000  Level Miami Center
Sun 11:48:37 PM 27.3562 -83.3470 115° Southeast 510 587 35,000  Level FlightAware ADS-B
Sun 11:49:19 PM 27.3137 -83.2462 115° Southeast 511 588 35,000  Level FlightAware ADS-B
Sun 11:53:35 PM 27.0548 -82.6378 115° Southeast 511 588 35,000  Level FlightAware ADS-B
Sun 11:55:20 PM 26.9462 -82.3852 116° Southeast 515 593 35,000  Level FlightAware ADS-B
Sun 11:55:59 PM 26.9064 -82.2929 116° Southeast 514 592 35,000  Level FlightAware ADS-B
Sun 11:56:33 PM 26.8708 -82.2107 116° Southeast 513 590 35,000  Level FlightAware ADS-B
Sun 11:57:19 PM 26.8229 -82.1003 116° Southeast 513 590 35,000  Level FlightAware ADS-B
Sun 11:58:00 PM 26.7802 -82.0025 116° Southeast 514 592 35,000  Level FlightAware ADS-B
Sun 11:58:40 PM 26.7385 -81.9065 116° Southeast 516 594 35,000  Level FlightAware ADS-B
Sun 11:59:21 PM 26.6958 -81.8088 116° Southeast 515 593 35,000  Level FlightAware ADS-B
Mon 12:00:01 AM 26.6536 -81.7124 116° Southeast 514 592 35,000  Level FlightAware ADS-B
Mon 12:01:04 AM 26.5928 -81.5740 116° Southeast 513 590 35,000  Level FlightAware ADS-B
Mon 12:01:47 AM 26.5432 -81.4613 116° Southeast 513 590 35,000  Level FlightAware ADS-B
Mon 12:02:26 AM 26.5153 -81.3979 116° Southeast 513 590 35,000  Level FlightAware ADS-B
Mon 12:03:02 AM 26.4657 -81.2860 116° Southeast 512 589 35,000  Level FlightAware ADS-B
Mon 12:03:34 AM 26.4325 -81.2112 116° Southeast 511 588 35,000  Level FlightAware ADS-B
Mon 12:04:28 AM 26.3743 -81.0799 116° Southeast 511 588 35,000  Level FlightAware ADS-B
Mon 12:05:12 AM 26.3286 -80.9774 116° Southeast 510 587 35,000  Level FlightAware ADS-B
Mon 12:08:58 AM 26.0900 -80.4456 116° Southeast 512 589 35,000  Level FlightAware ADS-B
Mon 12:10:14 AM 26.0172 -80.2808 116° Southeast 505 581 35,000  Level Miami Center
Mon 12:15:38 AM 25.6301 -79.4389 116° Southeast 516 594 35,000  Level FlightAware ADS-B
Mon 12:16:21 AM 25.5845 -79.3405 117° Southeast 515 593 35,000  Level FlightAware ADS-B
Mon 12:16:58 AM 25.5462 -79.2696 121° Southeast 510 587 35,000  Level FlightAware ADS-B
Mon 12:18:12 AM 25.4872 -79.1794 121° Southeast 515 593 35,000 -45 Level Miami Center
Mon 12:19:11 AM 25.3889 -79.0625 133° Southeast 509 586 34,900  Descending Miami Center
Mon 12:20:14 AM 25.3028 -78.9458 129° Southeast 504 580 35,000 50 Climbing Miami Center
Mon 12:21:12 AM 25.1958 -78.8247 134° Southeast 499 574 35,000  Level Miami Center
Mon 12:22:13 AM 25.1075 -78.7086 130° Southeast 499 574 35,000  Level Miami Center
Mon 12:23:13 AM 25.0169 -78.5925 131° Southeast 499 574 35,000  Level Miami Center
Mon 12:24:14 AM 24.9242 -78.4767 131° Southeast 499 574 35,000  Level Miami Center
Mon 12:25:11 AM 24.8314 -78.3608 131° Southeast 499 574 35,000  Level Miami Center
Mon 12:26:13 AM 24.7406 -78.2478 131° Southeast 499 574 35,000  Level Miami Center
Mon 12:27:11 AM 24.6475 -78.1325 132° Southeast 499 574 35,000  Level Miami Center
Mon 12:28:11 AM 24.5544 -78.0172 132° Southeast 499 574 35,000  Level Miami Center
Mon 12:29:11 AM 24.4694 -77.9136 132° Southeast 499 574 35,000  Level Miami Center
Mon 12:30:11 AM 24.3700 -77.7850 130° Southeast 499 574 35,000  Level Miami Center
Mon 12:31:12 AM 24.2786 -77.6728 132° Southeast 499 574 35,000  Level Miami Center
Mon 12:32:11 AM 24.1853 -77.5558 131° Southeast 504 580 35,000  Level Miami Center
Mon 12:33:12 AM 24.0917 -77.4417 132° Southeast 499 574 35,000  Level Miami Center
Mon 12:34:14 AM 24.0000 -77.3297 132° Southeast 499 574 35,000  Level Miami Center
Mon 12:35:11 AM 23.9083 -77.2158 131° Southeast 499 574 35,000  Level Miami Center
Mon 12:36:14 AM 23.8208 -77.1086 132° Southeast 490 564 35,000  Level Miami Center
Mon 12:37:11 AM 23.7292 -76.9972 132° Southeast 485 558 35,000  Level Miami Center
Mon 12:38:14 AM 23.6372 -76.8861 132° Southeast 485 558 35,000  Level Miami Center
Mon 12:39:12 AM 23.5453 -76.7750 132° Southeast 491 565 35,000  Level Miami Center
Mon 12:40:12 AM 23.4553 -76.6642 132° Southeast 491 565 35,000  Level Miami Center
Mon 12:41:12 AM 23.3611 -76.5533 133° Southeast 491 565 35,000  Level Miami Center
Mon 12:42:13 AM 23.2708 -76.4428 132° Southeast 491 565 35,000  Level Miami Center
Mon 12:43:11 AM 23.1764 -76.3278 132° Southeast 491 565 35,000  Level Miami Center
Mon 12:44:11 AM 23.0842 -76.2175 132° Southeast 491 565 35,000  Level Miami Center
Mon 12:45:11 AM 22.9894 -76.1053 133° Southeast 491 565 35,000  Level Miami Center
Mon 12:46:11 AM 22.9075 -76.0064 132° Southeast 491 565 35,000  Level Miami Center
Mon 12:47:13 AM 22.8150 -75.8944 132° Southeast 491 565 35,000  Level Miami Center
Mon 12:48:11 AM 22.7200 -75.7847 133° Southeast 491 565 35,000  Level Miami Center
Mon 12:49:13 AM 22.6294 -75.6753 132° Southeast 491 565 35,000  Level Miami Center
Mon 12:50:12 AM 22.5344 -75.5658 133° Southeast 491 565 35,000  Level Miami Center
Mon 12:51:12 AM 22.4436 -75.4567 132° Southeast 491 565 35,000  Level Miami Center
Mon 12:52:13 AM 22.3508 -75.3453 132° Southeast 491 565 35,000  Level Miami Center
Mon 12:53:14 AM 22.2578 -75.2364 133° Southeast 491 565 35,000 -446 Level Miami Center
Mon 12:54:14 AM 22.1644 -75.1278 133° Southeast 486 559 34,100 -872 Descending Miami Center
Mon 12:55:11 AM 22.0672 -75.0236 135° Southeast 491 565 33,300 -555 Descending Miami Center
Mon 12:56:13 AM 21.9658 -74.9267 138° Southeast 491 565 33,000 -148 Descending Miami Center
Mon 12:57:13 AM 21.8644 -74.8297 138° Southeast 491 565 33,000  Level Miami Center
Mon 12:58:14 AM 21.7586 -74.7353 140° Southeast 491 565 33,000  Level Miami Center
Mon 12:59:12 AM 21.6525 -74.6208 135° Southeast 486 559 33,000 -51 Level Miami Center
Mon 01:00:12 AM 21.5531 -74.5242 138° Southeast 486 559 32,900  Descending Miami Center
Mon 01:01:11 AM 21.4492 -74.4322 141° Southeast 481 554 33,000 50 Climbing Miami Center
Mon 01:02:11 AM 21.3475 -74.3361 139° Southeast 487 560 33,000  Level Miami Center
Mon 01:03:12 AM 21.2456 -74.2378 138° Southeast 492 566 33,000 -49 Level Miami Center
Mon 01:04:13 AM 21.1439 -74.1419 139° Southeast 492 566 32,900  Descending Miami Center
Mon 01:05:11 AM 21.0525 -74.0592 140° Southeast 486 559 33,000  Climbing Miami Center
Mon 01:06:12 AM 20.9506 -73.9636 139° Southeast 491 565 32,900  Descending Miami Center
Mon 01:07:13 AM 20.8486 -73.8681 139° Southeast 491 565 33,000  Climbing Miami Center
Mon 01:08:11 AM 20.7444 -73.7728 139° Southeast 491 565 32,900  Descending Miami Center
Mon 01:09:11 AM 20.6422 -73.6775 139° Southeast 491 565 33,000  Climbing Miami Center
Mon 01:10:13 AM 20.5403 -73.5825 139° Southeast 491 565 32,900 -49 Descending Miami Center
Mon 01:11:13 AM 20.4381 -73.4897 140° Southeast 491 565 32,900 50 Level Miami Center
Mon 01:12:12 AM 20.3381 -73.3969 139° Southeast 491 565 33,000 51 Climbing Miami Center
Mon 01:13:11 AM 20.2358 -73.3047 140° Southeast 491 565 33,000  Level Miami Center
Mon 01:14:13 AM 20.1333 -73.2078 138° Southeast 491 565 33,000  Level Miami Center
Mon 01:16:00 AM 19.9257 -73.0687 148° Southeast  Level FlightAware Approximate
Mon 01:23:00 AM 19.1098 -72.5265 148° Southeast  Level FlightAware Approximate
Mon 01:24:00 AM 18.9977 -72.4525 148° Southeast  Level FlightAware Approximate
Mon 01:25:00 AM 18.8855 -72.3786 148° Southeast  Level FlightAware Approximate
Mon 01:26:00 AM 18.7734 -72.3048 148° Southeast  Level FlightAware Approximate
Mon 01:27:00 AM 18.6612 -72.2311 148° Southeast  Level FlightAware Approximate
Mon 01:28:00 AM 18.5490 -72.1575 148° Southeast  Level FlightAware Approximate
Mon 01:29:00 AM 18.4367 -72.0841 148° Southeast  Level FlightAware Approximate
Mon 01:30:00 AM 18.3244 -72.0107 148° Southeast  Level FlightAware Approximate
Mon 01:31:00 AM 18.2121 -71.9373 148° Southeast  Level FlightAware Approximate
Mon 01:32:00 AM 18.0998 -71.8641 148° Southeast  Level FlightAware Approximate
Mon 01:33:00 AM 17.9874 -71.7910 148° Southeast  Level FlightAware Approximate
Mon 01:34:00 AM 17.8751 -71.7180 148° Southeast  Level FlightAware Approximate
Mon 01:35:00 AM 17.7626 -71.6452 148° Southeast  Level FlightAware Approximate
Mon 01:36:00 AM 17.6501 -71.5724 148° Southeast  Level FlightAware Approximate
Mon 01:37:00 AM 17.5376 -71.4997 148° Southeast  Level FlightAware Approximate
Mon 01:38:00 AM 17.4251 -71.4271 148° Southeast  Level FlightAware Approximate
Mon 01:39:00 AM 17.3125 -71.3546 148° Southeast  Level FlightAware Approximate
Mon 01:40:00 AM 17.2000 -71.2822 148° Southeast  Level FlightAware Approximate
Mon 01:41:00 AM 17.0874 -71.2099 148° Southeast  Level FlightAware Approximate
Mon 01:42:00 AM 16.9747 -71.1376 148° Southeast  Level FlightAware Approximate
Mon 01:43:00 AM 16.8623 -71.0656 148° Southeast  Level FlightAware Approximate
Mon 01:44:00 AM 16.7498 -70.9937 149° Southeast  Level FlightAware Approximate
Mon 01:45:00 AM 16.6373 -70.9218 149° Southeast  Level FlightAware Approximate
Mon 01:46:00 AM 16.5247 -70.8500 149° Southeast  Level FlightAware Approximate
Mon 01:47:00 AM 16.4122 -70.7783 149° Southeast  Level FlightAware Approximate
Mon 01:48:00 AM 16.2996 -70.7067 149° Southeast  Level FlightAware Approximate
Mon 01:49:00 AM 16.1870 -70.6352 149° Southeast  Level FlightAware Approximate
Mon 01:50:00 AM 16.0743 -70.5638 149° Southeast  Level FlightAware Approximate
Mon 01:51:00 AM 15.9617 -70.4923 148° Southeast  Level FlightAware Approximate
Mon 01:52:00 AM 15.8492 -70.4206 149° Southeast  Level FlightAware Approximate
Mon 01:53:00 AM 15.7366 -70.3490 149° Southeast  Level FlightAware Approximate
Mon 01:54:00 AM 15.6238 -70.2774 149° Southeast  Level FlightAware Approximate
Mon 01:55:00 AM 15.5111 -70.2059 149° Southeast  Level FlightAware Approximate
Mon 01:56:00 AM 15.3983 -70.1344 149° Southeast  Level FlightAware Approximate
Mon 01:57:00 AM 15.2855 -70.0631 149° Southeast  Level FlightAware Approximate
Mon 01:58:00 AM 15.1727 -69.9918 149° Southeast  Level FlightAware Approximate
Mon 01:59:00 AM 15.0599 -69.9206 149° Southeast  Level FlightAware Approximate
Mon 02:00:00 AM 14.9470 -69.8495 149° Southeast  Level FlightAware Approximate
Mon 02:01:00 AM 14.8341 -69.7784 149° Southeast  Level FlightAware Approximate
Mon 02:02:00 AM 14.7212 -69.7074 149° Southeast  Level FlightAware Approximate
Mon 02:03:00 AM 14.6083 -69.6365 149° Southeast  Level FlightAware Approximate
Mon 02:04:00 AM 14.4953 -69.5657 149° Southeast  Level FlightAware Approximate
Mon 02:05:00 AM 14.3824 -69.4949 149° Southeast  Level FlightAware Approximate
Mon 02:06:00 AM 14.2694 -69.4242 149° Southeast  Level FlightAware Approximate
Mon 02:07:00 AM 14.1564 -69.3536 149° Southeast  Level FlightAware Approximate
Mon 02:08:00 AM 14.0434 -69.2831 149° Southeast  Level FlightAware Approximate
Mon 02:09:00 AM 13.9303 -69.2126 149° Southeast  Level FlightAware Approximate
Mon 02:10:00 AM 13.8170 -69.1425 149° Southeast  Level FlightAware Approximate
Mon 02:11:00 AM 13.7036 -69.0728 149° Southeast  Level FlightAware Approximate
Mon 02:12:00 AM 13.5901 -69.0031 149° Southeast  Level FlightAware Approximate
Mon 02:13:00 AM 13.4767 -68.9335 149° Southeast  Level FlightAware Approximate
Mon 02:14:00 AM 13.3632 -68.8639 149° Southeast  Level FlightAware Approximate
Mon 02:15:00 AM 13.2497 -68.7944 149° Southeast  Level FlightAware Approximate
Mon 02:16:00 AM 13.1361 -68.7250 149° Southeast  Level FlightAware Approximate
Mon 02:17:00 AM 13.0226 -68.6557 149° Southeast  Level FlightAware Approximate
Mon 02:18:00 AM 12.9090 -68.5864 149° Southeast  Level FlightAware Approximate
Mon 02:19:00 AM 12.7958 -68.5174 149° Southeast  Level FlightAware Approximate
Mon 02:20:00 AM 12.6826 -68.4485 149° Southeast  Level FlightAware Approximate
Mon 02:21:00 AM 12.5694 -68.3796 149° Southeast  Level FlightAware Approximate
Mon 02:22:00 AM 12.4561 -68.3108 149° Southeast  Level FlightAware Approximate
Mon 02:23:00 AM 12.3429 -68.2420 149° Southeast  Level FlightAware Approximate
Mon 02:24:00 AM 12.2296 -68.1733 149° Southeast  Level FlightAware Approximate
Mon 02:25:00 AM 12.1163 -68.1047 149° Southeast  Level FlightAware Approximate
Mon 02:26:00 AM 12.0030 -68.0361 149° Southeast  Level FlightAware Approximate
Mon 02:27:00 AM 11.8894 -67.9675 149° Southeast  Level FlightAware Approximate
Mon 02:28:00 AM 11.7759 -67.8989 149° Southeast  Level FlightAware Approximate
Mon 02:29:00 AM 11.6625 -67.8301 149° Southeast  Level FlightAware Approximate
Mon 02:30:00 AM 11.5491 -67.7613 149° Southeast  Level FlightAware Approximate
Mon 02:31:00 AM 11.4360 -67.6926 149° Southeast  Level FlightAware Approximate
Mon 02:32:00 AM 11.3228 -67.6240 149° Southeast  Level FlightAware Approximate
Mon 02:33:00 AM 11.2095 -67.5555 149° Southeast  Level FlightAware Approximate
Mon 02:34:00 AM 11.0963 -67.4870 149° Southeast  Level FlightAware Approximate
Mon 02:35:00 AM 10.9831 -67.4185 149° Southeast  Level FlightAware Approximate
Mon 02:36:00 AM 10.8698 -67.3501 149° Southeast  Level FlightAware Approximate
Mon 02:37:00 AM 10.7566 -67.2818 149° Southeast  Level FlightAware Approximate
Mon 02:38:00 AM 10.6433 -67.2135 149° Southeast  Level FlightAware Approximate
Mon 02:39:00 AM 10.5300 -67.1452 149° Southeast  Level FlightAware Approximate
Mon 02:40:00 AM 10.4167 -67.0770 149° Southeast  Level FlightAware Approximate
Mon 02:41:00 AM 10.3034 -67.0089 149° Southeast  Level FlightAware Approximate
Mon 02:42:00 AM 10.1900 -66.9408 149° Southeast  Level FlightAware Approximate
Mon 02:43:00 AM 10.0766 -66.8727 149° Southeast  Level FlightAware Approximate
Mon 02:44:00 AM 9.9633 -66.8047 149° Southeast  Level FlightAware Approximate
Mon 02:45:00 AM 9.8499 -66.7368 149° Southeast  Level FlightAware Approximate
Mon 02:46:00 AM 9.7365 -66.6689 149° Southeast  Level FlightAware Approximate
Mon 02:47:00 AM 9.6231 -66.6010 149° Southeast  Level FlightAware Approximate
Mon 02:48:00 AM 9.5097 -66.5332 149° Southeast  Level FlightAware Approximate
Mon 02:49:00 AM 9.3962 -66.4654 149° Southeast  Level FlightAware Approximate
Mon 02:50:00 AM 9.2828 -66.3977 149° Southeast  Level FlightAware Approximate
Mon 02:51:00 AM 9.1693 -66.3300 150° Southeast  Level FlightAware Approximate
Mon 02:52:00 AM 9.0558 -66.2624 150° Southeast  Level FlightAware Approximate
Mon 02:53:00 AM 8.9424 -66.1948 150° Southeast  Level FlightAware Approximate
Mon 02:54:00 AM 8.8288 -66.1272 150° Southeast  Level FlightAware Approximate
Mon 02:55:00 AM 8.7155 -66.0599 150° Southeast  Level FlightAware Approximate
Mon 02:56:00 AM 8.6022 -65.9925 150° Southeast  Level FlightAware Approximate
Mon 02:57:00 AM 8.4889 -65.9252 150° Southeast  Level FlightAware Approximate
Mon 02:58:00 AM 8.3755 -65.8579 150° Southeast  Level FlightAware Approximate
Mon 02:59:00 AM 8.2621 -65.7907 150° Southeast  Level FlightAware Approximate
Mon 03:00:00 AM 8.1488 -65.7235 150° Southeast  Level FlightAware Approximate
Mon 03:01:00 AM 8.0354 -65.6563 150° Southeast  Level FlightAware Approximate
Mon 03:02:00 AM 7.9220 -65.5892 150° Southeast  Level FlightAware Approximate
Mon 03:03:00 AM 7.8086 -65.5221 150° Southeast  Level FlightAware Approximate
Mon 03:04:00 AM 7.6952 -65.4551 150° Southeast  Level FlightAware Approximate
Mon 03:05:00 AM 7.5817 -65.3881 150° Southeast  Level FlightAware Approximate
Mon 03:06:00 AM 7.4683 -65.3211 150° Southeast  Level FlightAware Approximate
Mon 03:07:00 AM 7.3548 -65.2542 150° Southeast  Level FlightAware Approximate
Mon 03:08:00 AM 7.2414 -65.1872 150° Southeast  Level FlightAware Approximate
Mon 03:09:00 AM 7.1279 -65.1204 150° Southeast  Level FlightAware Approximate
Mon 03:10:00 AM 7.0144 -65.0535 150° Southeast  Level FlightAware Approximate
Mon 03:11:00 AM 6.9009 -64.9867 150° Southeast  Level FlightAware Approximate
Mon 03:12:00 AM 6.7874 -64.9199 150° Southeast  Level FlightAware Approximate
Mon 03:13:00 AM 6.6739 -64.8532 150° Southeast  Level FlightAware Approximate
Mon 03:14:00 AM 6.5604 -64.7865 150° Southeast  Level FlightAware Approximate
Mon 03:15:00 AM 6.4469 -64.7198 150° Southeast  Level FlightAware Approximate
Mon 03:16:00 AM 6.3334 -64.6532 150° Southeast  Level FlightAware Approximate
Mon 03:17:00 AM 6.2198 -64.5865 150° Southeast  Level FlightAware Approximate
Mon 03:18:00 AM 6.1063 -64.5199 150° Southeast  Level FlightAware Approximate
Mon 03:19:00 AM 5.9927 -64.4534 150° Southeast  Level FlightAware Approximate
Mon 03:20:00 AM 5.8791 -64.3868 150° Southeast  Level FlightAware Approximate
Mon 03:21:00 AM 5.7656 -64.3203 150° Southeast  Level FlightAware Approximate
Mon 03:22:00 AM 5.6520 -64.2538 150° Southeast  Level FlightAware Approximate
Mon 03:23:00 AM 5.5384 -64.1874 150° Southeast  Level FlightAware Approximate
Mon 03:24:00 AM 5.4248 -64.1209 150° Southeast  Level FlightAware Approximate
Mon 03:25:00 AM 5.3112 -64.0545 150° Southeast  Level FlightAware Approximate
Mon 03:26:00 AM 5.1976 -63.9882 150° Southeast  Level FlightAware Approximate
Mon 03:27:00 AM 5.0840 -63.9218 150° Southeast  Level FlightAware Approximate
Mon 03:28:00 AM 4.9704 -63.8554 150° Southeast  Level FlightAware Approximate
Mon 03:29:00 AM 4.8567 -63.7891 150° Southeast  Level FlightAware Approximate
Mon 03:30:00 AM 4.7431 -63.7229 150° Southeast  Level FlightAware Approximate
Mon 03:31:00 AM 4.6294 -63.6566 150° Southeast  Level FlightAware Approximate
Mon 03:32:00 AM 4.5158 -63.5903 150° Southeast  Level FlightAware Approximate
Mon 03:33:00 AM 4.4021 -63.5241 150° Southeast  Level FlightAware Approximate
Mon 03:34:00 AM 4.2885 -63.4579 150° Southeast  Level FlightAware Approximate
Mon 03:35:00 AM 4.1748 -63.3917 150° Southeast  Level FlightAware Approximate
Mon 03:36:00 AM 4.0611 -63.3255 150° Southeast  Level FlightAware Approximate
Mon 03:37:00 AM 3.9475 -63.2594 150° Southeast  Level FlightAware Approximate
Mon 03:38:00 AM 3.8338 -63.1932 150° Southeast  Level FlightAware Approximate
Mon 03:39:00 AM 3.7201 -63.1271 150° Southeast  Level FlightAware Approximate
Mon 03:40:00 AM 3.6064 -63.0610 150° Southeast  Level FlightAware Approximate
Mon 03:41:00 AM 3.4927 -62.9950 150° Southeast  Level FlightAware Approximate
Mon 03:42:00 AM 3.3790 -62.9289 150° Southeast  Level FlightAware Approximate
Mon 03:43:00 AM 3.2653 -62.8629 150° Southeast  Level FlightAware Approximate
Mon 03:44:00 AM 3.1516 -62.7968 150° Southeast  Level FlightAware Approximate
Mon 03:45:00 AM 3.0379 -62.7308 150° Southeast  Level FlightAware Approximate
Mon 03:46:00 AM 2.9241 -62.6648 150° Southeast  Level FlightAware Approximate
Mon 03:47:00 AM 2.8104 -62.5988 150° Southeast  Level FlightAware Approximate
Mon 03:48:00 AM 2.6967 -62.5328 150° Southeast  Level FlightAware Approximate
Mon 03:49:00 AM 2.5830 -62.4669 150° Southeast  Level FlightAware Approximate
Mon 03:50:00 AM 2.4692 -62.4009 150° Southeast  Level FlightAware Approximate
Mon 03:51:00 AM 2.3555 -62.3349 150° Southeast  Level FlightAware Approximate
Mon 03:52:00 AM 2.2418 -62.2690 150° Southeast  Level FlightAware Approximate
Mon 03:53:00 AM 2.1280 -62.2031 150° Southeast  Level FlightAware Approximate
Mon 03:54:00 AM 2.0143 -62.1372 150° Southeast  Level FlightAware Approximate
Mon 03:55:00 AM 1.9005 -62.0713 150° Southeast  Level FlightAware Approximate
Mon 03:56:00 AM 1.7868 -62.0054 150° Southeast  Level FlightAware Approximate
Mon 03:57:00 AM 1.6730 -61.9395 150° Southeast  Level FlightAware Approximate
Mon 03:58:00 AM 1.5592 -61.8736 150° Southeast  Level FlightAware Approximate
Mon 03:59:00 AM 1.4455 -61.8078 150° Southeast  Level FlightAware Approximate
Mon 04:00:00 AM 1.3317 -61.7419 150° Southeast  Level FlightAware Approximate
Mon 04:01:00 AM 1.2180 -61.6760 150° Southeast  Level FlightAware Approximate
Mon 04:02:00 AM 1.1042 -61.6102 150° Southeast  Level FlightAware Approximate
Mon 04:03:00 AM 0.9905 -61.5443 150° Southeast  Level FlightAware Approximate
Mon 04:04:00 AM 0.8767 -61.4785 150° Southeast  Level FlightAware Approximate
Mon 04:05:00 AM 0.7629 -61.4126 150° Southeast  Level FlightAware Approximate
Mon 04:06:00 AM 0.6491 -61.3468 150° Southeast  Level FlightAware Approximate
Mon 04:07:00 AM 0.5354 -61.2810 150° Southeast  Level FlightAware Approximate
Mon 04:08:00 AM 0.4216 -61.2151 150° Southeast  Level FlightAware Approximate
Mon 04:09:00 AM 0.3078 -61.1493 150° Southeast  Level FlightAware Approximate
Mon 04:10:00 AM 0.1941 -61.0835 150° Southeast  Level FlightAware Approximate
Mon 04:11:00 AM 0.0803 -61.0176 150° Southeast  Level FlightAware Approximate
Mon 04:12:00 AM -0.0335 -60.9518 150° Southeast  Level FlightAware Approximate
Mon 04:13:00 AM -0.1472 -60.8860 150° Southeast  Level FlightAware Approximate
Mon 04:14:00 AM -0.2610 -60.8201 150° Southeast  Level FlightAware Approximate
Mon 04:15:00 AM -0.3748 -60.7543 150° Southeast  Level FlightAware Approximate
Mon 04:16:00 AM -0.4886 -60.6885 150° Southeast  Level FlightAware Approximate
Mon 04:17:00 AM -0.6023 -60.6227 150° Southeast  Level FlightAware Approximate
Mon 04:18:00 AM -0.7161 -60.5568 150° Southeast  Level FlightAware Approximate
Mon 04:19:00 AM -0.8299 -60.4910 150° Southeast  Level FlightAware Approximate
Mon 04:20:00 AM -0.9436 -60.4251 150° Southeast  Level FlightAware Approximate
Mon 04:21:00 AM -1.0574 -60.3593 150° Southeast  Level FlightAware Approximate
Mon 04:22:00 AM -1.1712 -60.2934 150° Southeast  Level FlightAware Approximate
Mon 04:23:00 AM -1.2849 -60.2276 150° Southeast  Level FlightAware Approximate
Mon 04:24:00 AM -1.3987 -60.1617 150° Southeast  Level FlightAware Approximate
Mon 04:25:00 AM -1.5124 -60.0959 150° Southeast  Level FlightAware Approximate
Mon 04:26:00 AM -1.6262 -60.0300 150° Southeast  Level FlightAware Approximate
Mon 04:27:00 AM -1.7400 -59.9641 150° Southeast  Level FlightAware Approximate
Mon 04:28:00 AM -1.8537 -59.8982 150° Southeast  Level FlightAware Approximate
Mon 04:29:00 AM -1.9675 -59.8323 150° Southeast  Level FlightAware Approximate
Mon 04:30:00 AM -2.0812 -59.7664 150° Southeast  Level FlightAware Approximate
Mon 04:31:00 AM -2.1950 -59.7005 150° Southeast  Level FlightAware Approximate
Mon 04:32:00 AM -2.3087 -59.6345 150° Southeast  Level FlightAware Approximate
Mon 04:33:00 AM -2.4224 -59.5686 150° Southeast  Level FlightAware Approximate
Mon 04:34:00 AM -2.5362 -59.5027 150° Southeast  Level FlightAware Approximate
Mon 04:35:00 AM -2.6499 -59.4367 150° Southeast  Level FlightAware Approximate
Mon 04:36:00 AM -2.7636 -59.3707 150° Southeast  Level FlightAware Approximate
Mon 04:37:00 AM -2.8774 -59.3047 150° Southeast  Level FlightAware Approximate
Mon 04:38:00 AM -2.9911 -59.2387 150° Southeast  Level FlightAware Approximate
Mon 04:39:00 AM -3.1048 -59.1727 150° Southeast  Level FlightAware Approximate
Mon 04:40:00 AM -3.2185 -59.1067 150° Southeast  Level FlightAware Approximate
Mon 04:41:00 AM -3.3322 -59.0406 150° Southeast  Level FlightAware Approximate
Mon 04:42:00 AM -3.4459 -58.9746 150° Southeast  Level FlightAware Approximate
Mon 04:43:00 AM -3.5596 -58.9085 150° Southeast  Level FlightAware Approximate
Mon 04:44:00 AM -3.6733 -58.8424 150° Southeast  Level FlightAware Approximate
Mon 04:45:00 AM -3.7870 -58.7763 150° Southeast  Level FlightAware Approximate
Mon 04:46:00 AM -3.9007 -58.7102 150° Southeast  Level FlightAware Approximate
Mon 04:47:00 AM -4.0144 -58.6441 150° Southeast  Level FlightAware Approximate
Mon 04:48:00 AM -4.1280 -58.5779 150° Southeast  Level FlightAware Approximate
Mon 04:49:00 AM -4.2417 -58.5117 150° Southeast  Level FlightAware Approximate
Mon 04:50:00 AM -4.3554 -58.4455 150° Southeast  Level FlightAware Approximate
Mon 04:51:00 AM -4.4690 -58.3793 150° Southeast  Level FlightAware Approximate
Mon 04:52:00 AM -4.5827 -58.3131 150° Southeast  Level FlightAware Approximate
Mon 04:53:00 AM -4.6963 -58.2468 150° Southeast  Level FlightAware Approximate
Mon 04:54:00 AM -4.8100 -58.1805 150° Southeast  Level FlightAware Approximate
Mon 04:55:00 AM -4.9236 -58.1142 150° Southeast  Level FlightAware Approximate
Mon 04:56:00 AM -5.0372 -58.0479 150° Southeast  Level FlightAware Approximate
Mon 04:57:00 AM -5.1508 -57.9815 150° Southeast  Level FlightAware Approximate
Mon 04:58:00 AM -5.2645 -57.9152 150° Southeast  Level FlightAware Approximate
Mon 04:59:00 AM -5.3781 -57.8488 150° Southeast  Level FlightAware Approximate
Mon 05:00:00 AM -5.4917 -57.7823 150° Southeast  Level FlightAware Approximate
Mon 05:01:00 AM -5.6052 -57.7159 150° Southeast  Level FlightAware Approximate
Mon 05:02:00 AM -5.7188 -57.6494 150° Southeast  Level FlightAware Approximate
Mon 05:03:00 AM -5.8324 -57.5829 150° Southeast  Level FlightAware Approximate
Mon 05:04:00 AM -5.9460 -57.5164 150° Southeast  Level FlightAware Approximate
Mon 05:05:00 AM -6.0595 -57.4498 150° Southeast  Level FlightAware Approximate
Mon 05:06:00 AM -6.1731 -57.3833 150° Southeast  Level FlightAware Approximate
Mon 05:07:00 AM -6.2866 -57.3167 150° Southeast  Level FlightAware Approximate
Mon 05:08:00 AM -6.4002 -57.2500 150° Southeast  Level FlightAware Approximate
Mon 05:09:00 AM -6.5137 -57.1833 150° Southeast  Level FlightAware Approximate
Mon 05:10:00 AM -6.6272 -57.1166 150° Southeast  Level FlightAware Approximate
Mon 05:11:00 AM -6.7407 -57.0499 150° Southeast  Level FlightAware Approximate
Mon 05:12:00 AM -6.8542 -56.9832 150° Southeast  Level FlightAware Approximate
Mon 05:13:00 AM -6.9677 -56.9164 150° Southeast  Level FlightAware Approximate
Mon 05:14:00 AM -7.0812 -56.8495 150° Southeast  Level FlightAware Approximate
Mon 05:15:00 AM -7.1947 -56.7827 150° Southeast  Level FlightAware Approximate
Mon 05:16:00 AM -7.3081 -56.7158 150° Southeast  Level FlightAware Approximate
Mon 05:17:00 AM -7.4216 -56.6488 150° Southeast  Level FlightAware Approximate
Mon 05:18:00 AM -7.5350 -56.5819 150° Southeast  Level FlightAware Approximate
Mon 05:19:00 AM -7.6484 -56.5149 150° Southeast  Level FlightAware Approximate
Mon 05:20:00 AM -7.7619 -56.4479 150° Southeast  Level FlightAware Approximate
Mon 05:21:00 AM -7.8753 -56.3808 150° Southeast  Level FlightAware Approximate
Mon 05:22:00 AM -7.9887 -56.3137 150° Southeast  Level FlightAware Approximate
Mon 05:23:00 AM -8.1021 -56.2465 150° Southeast  Level FlightAware Approximate
Mon 05:24:00 AM -8.2155 -56.1794 150° Southeast  Level FlightAware Approximate
Mon 05:25:00 AM -8.3288 -56.1121 150° Southeast  Level FlightAware Approximate
Mon 05:26:00 AM -8.4422 -56.0449 150° Southeast  Level FlightAware Approximate
Mon 05:27:00 AM -8.5555 -55.9776 150° Southeast  Level FlightAware Approximate
Mon 05:28:00 AM -8.6688 -55.9102 150° Southeast  Level FlightAware Approximate
Mon 05:29:00 AM -8.7822 -55.8429 150° Southeast  Level FlightAware Approximate
Mon 05:30:00 AM -8.8955 -55.7754 150° Southeast  Level FlightAware Approximate
Mon 05:31:00 AM -9.0088 -55.7080 150° Southeast  Level FlightAware Approximate
Mon 05:32:00 AM -9.1221 -55.6405 150° Southeast  Level FlightAware Approximate
Mon 05:33:00 AM -9.2353 -55.5729 150° Southeast  Level FlightAware Approximate
Mon 05:34:00 AM -9.3486 -55.5053 150° Southeast  Level FlightAware Approximate
Mon 05:35:00 AM -9.4619 -55.4377 149° Southeast  Level FlightAware Approximate
Mon 05:36:00 AM -9.5751 -55.3700 149° Southeast  Level FlightAware Approximate
Mon 05:37:00 AM -9.6883 -55.3023 149° Southeast  Level FlightAware Approximate
Mon 05:38:00 AM -9.8015 -55.2345 149° Southeast  Level FlightAware Approximate
Mon 05:39:00 AM -9.9147 -55.1667 149° Southeast  Level FlightAware Approximate
Mon 05:40:00 AM -10.0279 -55.0989 149° Southeast  Level FlightAware Approximate
Mon 05:41:00 AM -10.1411 -55.0309 149° Southeast  Level FlightAware Approximate
Mon 05:42:00 AM -10.2542 -54.9630 149° Southeast  Level FlightAware Approximate
Mon 05:43:00 AM -10.3673 -54.8950 149° Southeast  Level FlightAware Approximate
Mon 05:44:00 AM -10.4805 -54.8269 149° Southeast  Level FlightAware Approximate
Mon 05:45:00 AM -10.5936 -54.7588 149° Southeast  Level FlightAware Approximate
Mon 05:46:00 AM -10.7067 -54.6907 149° Southeast  Level FlightAware Approximate
Mon 05:47:00 AM -10.8197 -54.6224 149° Southeast  Level FlightAware Approximate
Mon 05:48:00 AM -10.9328 -54.5542 149° Southeast  Level FlightAware Approximate
Mon 05:49:00 AM -11.0459 -54.4859 149° Southeast  Level FlightAware Approximate
Mon 05:50:00 AM -11.1589 -54.4175 149° Southeast  Level FlightAware Approximate
Mon 05:51:00 AM -11.2715 -54.3493 149° Southeast  Level FlightAware Approximate
Mon 05:52:00 AM -11.3842 -54.2811 149° Southeast  Level FlightAware Approximate
Mon 05:53:00 AM -11.4968 -54.2128 149° Southeast  Level FlightAware Approximate
Mon 05:54:00 AM -11.6093 -54.1445 149° Southeast  Level FlightAware Approximate
Mon 05:55:00 AM -11.7219 -54.0761 149° Southeast  Level FlightAware Approximate
Mon 05:56:00 AM -11.8345 -54.0076 149° Southeast  Level FlightAware Approximate
Mon 05:57:00 AM -11.9470 -53.9391 149° Southeast  Level FlightAware Approximate
Mon 05:58:00 AM -12.0595 -53.8705 149° Southeast  Level FlightAware Approximate
Mon 05:59:00 AM -12.1720 -53.8019 149° Southeast  Level FlightAware Approximate
Mon 06:00:00 AM -12.2845 -53.7332 149° Southeast  Level FlightAware Approximate
Mon 06:01:00 AM -12.3970 -53.6645 149° Southeast  Level FlightAware Approximate
Mon 06:02:00 AM -12.5094 -53.5957 149° Southeast  Level FlightAware Approximate
Mon 06:03:00 AM -12.6218 -53.5268 149° Southeast  Level FlightAware Approximate
Mon 06:04:00 AM -12.7343 -53.4579 149° Southeast  Level FlightAware Approximate
Mon 06:05:00 AM -12.8467 -53.3889 149° Southeast  Level FlightAware Approximate
Mon 06:06:00 AM -12.9590 -53.3199 149° Southeast  Level FlightAware Approximate
Mon 06:07:00 AM -13.0714 -53.2508 149° Southeast  Level FlightAware Approximate
Mon 06:08:00 AM -13.1837 -53.1816 149° Southeast  Level FlightAware Approximate
Mon 06:09:00 AM -13.2961 -53.1124 149° Southeast  Level FlightAware Approximate
Mon 06:10:00 AM -13.4084 -53.0431 149° Southeast  Level FlightAware Approximate
Mon 06:11:00 AM -13.5206 -52.9737 149° Southeast  Level FlightAware Approximate
Mon 06:12:00 AM -13.6329 -52.9043 149° Southeast  Level FlightAware Approximate
Mon 06:13:00 AM -13.7452 -52.8348 149° Southeast  Level FlightAware Approximate
Mon 06:14:00 AM -13.8574 -52.7653 149° Southeast  Level FlightAware Approximate
Mon 06:15:00 AM -13.9696 -52.6956 149° Southeast  Level FlightAware Approximate
Mon 06:16:00 AM -14.0818 -52.6259 149° Southeast  Level FlightAware Approximate
Mon 06:17:00 AM -14.1940 -52.5562 149° Southeast  Level FlightAware Approximate
Mon 06:18:00 AM -14.3061 -52.4863 149° Southeast  Level FlightAware Approximate
Mon 06:19:00 AM -14.4183 -52.4164 149° Southeast  Level FlightAware Approximate
Mon 06:20:00 AM -14.5304 -52.3465 149° Southeast  Level FlightAware Approximate
Mon 06:21:00 AM -14.6425 -52.2764 149° Southeast  Level FlightAware Approximate
Mon 06:22:00 AM -14.7545 -52.2063 149° Southeast  Level FlightAware Approximate
Mon 06:23:00 AM -14.8666 -52.1361 149° Southeast  Level FlightAware Approximate
Mon 06:24:00 AM -14.9786 -52.0659 149° Southeast  Level FlightAware Approximate
Mon 06:25:00 AM -15.0906 -51.9955 149° Southeast  Level FlightAware Approximate
Mon 06:26:00 AM -15.2026 -51.9251 149° Southeast  Level FlightAware Approximate
Mon 06:27:00 AM -15.3145 -51.8546 149° Southeast  Level FlightAware Approximate
Mon 06:28:00 AM -15.4265 -51.7841 149° Southeast  Level FlightAware Approximate
Mon 06:29:00 AM -15.5384 -51.7135 149° Southeast  Level FlightAware Approximate
Mon 06:30:00 AM -15.6503 -51.6427 149° Southeast  Level FlightAware Approximate
Mon 06:31:00 AM -15.7621 -51.5719 149° Southeast  Level FlightAware Approximate
Mon 06:32:00 AM -15.8740 -51.5011 149° Southeast  Level FlightAware Approximate
Mon 06:33:00 AM -15.9858 -51.4301 149° Southeast  Level FlightAware Approximate
Mon 06:34:00 AM -16.0976 -51.3591 149° Southeast  Level FlightAware Approximate
Mon 06:35:00 AM -16.2094 -51.2880 149° Southeast  Level FlightAware Approximate
Mon 06:36:00 AM -16.3211 -51.2168 149° Southeast  Level FlightAware Approximate
Mon 06:37:00 AM -16.4329 -51.1455 149° Southeast  Level FlightAware Approximate
Mon 06:38:00 AM -16.5446 -51.0742 149° Southeast  Level FlightAware Approximate
Mon 06:39:00 AM -16.6562 -51.0028 149° Southeast  Level FlightAware Approximate
Mon 06:40:00 AM -16.7679 -50.9313 148° Southeast  Level FlightAware Approximate
Mon 06:41:00 AM -16.8795 -50.8597 148° Southeast  Level FlightAware Approximate
Mon 06:42:00 AM -16.9911 -50.7880 148° Southeast  Level FlightAware Approximate
Mon 06:43:00 AM -17.1027 -50.7162 148° Southeast  Level FlightAware Approximate
Mon 06:44:00 AM -17.2143 -50.6443 148° Southeast  Level FlightAware Approximate
Mon 06:45:00 AM -17.3258 -50.5724 148° Southeast  Level FlightAware Approximate
Mon 06:46:00 AM -17.4373 -50.5004 148° Southeast  Level FlightAware Approximate
Mon 06:47:00 AM -17.5488 -50.4283 148° Southeast  Level FlightAware Approximate
Mon 06:48:00 AM -17.6602 -50.3560 148° Southeast  Level FlightAware Approximate
Mon 06:49:00 AM -17.7717 -50.2837 148° Southeast  Level FlightAware Approximate
Mon 06:50:00 AM -17.8831 -50.2114 148° Southeast  Level FlightAware Approximate
Mon 06:51:00 AM -17.9944 -50.1389 148° Southeast  Level FlightAware Approximate
Mon 06:52:00 AM -18.1058 -50.0663 148° Southeast  Level FlightAware Approximate
Mon 06:53:00 AM -18.2171 -49.9936 148° Southeast  Level FlightAware Approximate
Mon 06:54:00 AM -18.3284 -49.9209 148° Southeast  Level FlightAware Approximate
Mon 06:55:00 AM -18.4397 -49.8480 148° Southeast  Level FlightAware Approximate
Mon 06:56:00 AM -18.5509 -49.7751 148° Southeast  Level FlightAware Approximate
Mon 06:57:00 AM -18.6621 -49.7021 148° Southeast  Level FlightAware Approximate
Mon 06:58:00 AM -18.7733 -49.6289 148° Southeast  Level FlightAware Approximate
Mon 06:59:00 AM -18.8844 -49.5557 148° Southeast  Level FlightAware Approximate
Mon 07:00:00 AM -18.9956 -49.4824 148° Southeast  Level FlightAware Approximate
Mon 07:01:00 AM -19.1066 -49.4090 148° Southeast  Level FlightAware Approximate
Mon 07:02:00 AM -19.2177 -49.3354 148° Southeast  Level FlightAware Approximate
Mon 07:03:00 AM -19.3287 -49.2618 148° Southeast  Level FlightAware Approximate
Mon 07:04:00 AM -19.4398 -49.1881 148° Southeast  Level FlightAware Approximate
Mon 07:05:00 AM -19.5507 -49.1143 148° Southeast  Level FlightAware Approximate
Mon 07:06:00 AM -19.6617 -49.0404 148° Southeast  Level FlightAware Approximate
Mon 07:07:00 AM -19.7726 -48.9663 148° Southeast  Level FlightAware Approximate
Mon 07:08:00 AM -19.8835 -48.8922 148° Southeast  Level FlightAware Approximate
Mon 07:09:00 AM -19.9943 -48.8180 148° Southeast  Level FlightAware Approximate
Mon 07:10:00 AM -20.1051 -48.7436 148° Southeast  Level FlightAware Approximate
Mon 07:11:00 AM -20.2159 -48.6692 148° Southeast  Level FlightAware Approximate
Mon 07:12:00 AM -20.3267 -48.5946 148° Southeast  Level FlightAware Approximate
Mon 07:13:00 AM -20.4374 -48.5200 148° Southeast  Level FlightAware Approximate
Mon 07:14:00 AM -20.5481 -48.4452 148° Southeast  Level FlightAware Approximate
Mon 07:15:00 AM -20.6588 -48.3703 148° Southeast  Level FlightAware Approximate
Mon 07:16:00 AM -20.7694 -48.2954 148° Southeast  Level FlightAware Approximate
Mon 07:17:00 AM -20.8800 -48.2203 148° Southeast  Level FlightAware Approximate
Mon 07:18:00 AM -20.9906 -48.1451 148° Southeast  Level FlightAware Approximate
Mon 07:19:00 AM -21.1011 -48.0698 148° Southeast  Level FlightAware Approximate
Mon 07:20:00 AM -21.2116 -47.9943 148° Southeast  Level FlightAware Approximate
Mon 07:21:00 AM -21.3221 -47.9188 148° Southeast  Level FlightAware Approximate
Mon 07:22:00 AM -21.4325 -47.8431 147° Southeast  Level FlightAware Approximate
Mon 07:23:00 AM -21.5429 -47.7674 147° Southeast  Level FlightAware Approximate
Mon 07:24:00 AM -21.6536 -47.6920 148° Southeast  Level FlightAware Approximate
Mon 07:25:00 AM -21.7633 -47.6150 145° Southeast  Level FlightAware Approximate
Mon 07:26:00 AM -21.8745 -47.5405 149° Southeast  Level FlightAware Approximate
Mon 07:27:00 AM -21.9873 -47.4687 149° Southeast  Level FlightAware Approximate
Mon 07:28:00 AM -22.0968 -47.3913 146° Southeast  Level FlightAware Approximate
Mon 07:29:00 AM -22.2052 -47.3119 146° Southeast  Level FlightAware Approximate
Mon 07:30:00 AM -22.3144 -47.2337 147° Southeast  Level FlightAware Approximate
Mon 07:31:00 AM -22.4247 -47.1573 147° Southeast  Level FlightAware Approximate
Mon 07:32:00 AM -22.5351 -47.0811 148° Southeast  Level FlightAware Approximate
Mon 07:33:00 AM -22.6458 -47.0051 148° Southeast  Level FlightAware Approximate
Mon 07:34:00 AM -22.7564 -46.9291 148° Southeast  Level FlightAware Approximate
Mon 07:35:00 AM -22.8680 -46.8547 148° Southeast  Level FlightAware Approximate
Mon 07:36:00 AM -22.9776 -46.7769 146° Southeast  Level FlightAware Approximate
Mon 07:37:00 AM -23.0868 -46.6983 155° Southeast  Level FlightAware Approximate
Mon 07:38:00 AM -23.1945 -46.6185 143° Southeast  Level FlightAware Approximate
Mon 07:39:00 AM -23.3015 -46.5363 145° Southeast  Level FlightAware Approximate
Mon 07:40:00 AM -23.4156 -46.4672 155° Southeast  Level FlightAware Approximate
Mon 07:41:00 AM -23.4167 -46.4667 155° Southeast  Level FlightAware Approximate
Mon 07:42:00 AM -23.4321 -46.4695 155° Southeast  Level Estimated
Mon 07:43:00 AM -23.4321 -46.4695 155° Southeast  Level Estimated
Mon 07:44:00 AM -23.4321 -46.4695 155° Southeast  Level Estimated
Mon 07:45:00 AM -23.4321 -46.4695 155° Southeast  Level Estimated
Mon 07:46:00 AM -23.4321 -46.4695 155° Southeast  Level Estimated
Mon 07:47:00 AM -23.4321 -46.4695 155° Southeast  Level Estimated
Mon 07:48:00 AM -23.4321 -46.4695 155° Southeast  Level Estimated
Mon 07:49:00 AM -23.4321 -46.4695 155° Southeast  Level Estimated
Mon 07:50:00 AM -23.4321 -46.4695 155° Southeast  Level Estimated

Login

Don't have an account? Register now (free) for customized features, flight alerts, and more!